Home > Products > Valid Products > MTR

000
SAUS44 KSHV 040858
MTRAQV
METAR KAQV 040856Z AUTO 00000KT 10SM CLR 11/10 A3000 RMK AO2 SLP159
T01110100 56006 $





000
SAUS44 KSHV 040857
MTRBKB
METAR KBKB 040854Z AUTO 00000KT 10SM CLR 12/10 A2999 RMK AO2 SLP182
T01220100 58006 $





000
SAUS44 KSHV 040857
MTRBKB
METAR KBKB 040854Z AUTO 00000KT 10SM CLR 12/10 A2999 RMK AO2 SLP182
T01220100 58006 $





000
SAUS44 KSHV 040759
MTRAQV
METAR KAQV 040756Z AUTO 00000KT 10SM CLR 11/11 A3001 RMK AO2 SLP161
T01110106 $





000
SAUS44 KSHV 040757
MTRBKB
METAR KBKB 040754Z AUTO 00000KT 10SM CLR 13/10 A3000 RMK AO2 SLP184
T01280100 $





000
SAUS44 KSHV 040757
MTRBKB
METAR KBKB 040754Z AUTO 00000KT 10SM CLR 13/10 A3000 RMK AO2 SLP184
T01280100 $





000
SAUS44 KSHV 040657
MTRAQV
METAR KAQV 040656Z AUTO 00000KT 10SM CLR 12/11 A3001 RMK AO2 SLP163
T01170106 $





000
SAUS44 KSHV 040655
MTRBKB
METAR KBKB 040654Z AUTO 00000KT 10SM CLR 13/11 A3000 RMK AO2 SLP187
T01280106 $





000
SAUS44 KSHV 040655
MTRBKB
METAR KBKB 040654Z AUTO 00000KT 10SM CLR 13/11 A3000 RMK AO2 SLP187
T01280106 $





000
SAUS44 KSHV 040555
MTRBKB
METAR KBKB 040554Z AUTO 00000KT 10SM CLR 14/11 A3001 RMK AO2 SLP188
T01390111 10211 20139 402440139 51006 $





000
SAUS44 KSHV 040555
MTRBKB
METAR KBKB 040554Z AUTO 00000KT 10SM CLR 14/11 A3001 RMK AO2 SLP188
T01390111 10211 20139 402440139 51006 $





000
SAUS44 KSHV 040459
MTRAQV
METAR KAQV 040456Z AUTO 00000KT 10SM CLR 13/12 A3002 RMK AO2 SLP164
T01280117 $





000
SAUS44 KSHV 040459
MTRAQV
METAR KAQV 040456Z AUTO 00000KT 10SM CLR 13/12 A3002 RMK AO2 SLP164
T01280117 $





000
SAUS44 KSHV 040455
MTRBKB
METAR KBKB 040454Z AUTO 00000KT 10SM CLR 14/12 A3000 RMK AO2 SLP187
T01440117 $





000
SAUS44 KSHV 040455
MTRBKB
METAR KBKB 040454Z AUTO 00000KT 10SM CLR 14/12 A3000 RMK AO2 SLP187
T01440117 $





000
SAUS44 KSHV 040357
MTRAQV
METAR KAQV 040356Z AUTO 00000KT 10SM CLR 13/12 A3002 RMK AO2 SLP165
T01330117 $





000
SAUS44 KSHV 040357
MTRAQV
METAR KAQV 040356Z AUTO 00000KT 10SM CLR 13/12 A3002 RMK AO2 SLP165
T01330117 $





000
SAUS44 KSHV 040356
MTRBKB
METAR KBKB 040354Z AUTO 00000KT 10SM CLR 16/12 A3000 RMK AO2 SLP187
T01560117 $





000
SAUS44 KSHV 040257
MTRAQV
METAR KAQV 040256Z AUTO 00000KT 10SM CLR 14/12 A3001 RMK AO2 SLP161
T01440122 53015 $





000
SAUS44 KSHV 040257
MTRAQV
METAR KAQV 040256Z AUTO 00000KT 10SM CLR 14/12 A3001 RMK AO2 SLP161
T01440122 53015 $





000
SAUS44 KSHV 040255
MTRBKB
METAR KBKB 040254Z AUTO 00000KT 10SM CLR 16/12 A2999 RMK AO2 SLP182
T01610122 53015 $





000
SAUS44 KSHV 040158
MTRAQV
METAR KAQV 040156Z AUTO 00000KT 10SM CLR 15/13 A2999 RMK AO2 SLP154
T01500133 $





000
SAUS44 KSHV 040158
MTRAQV
METAR KAQV 040156Z AUTO 00000KT 10SM CLR 15/13 A2999 RMK AO2 SLP154
T01500133 $





000
SAUS44 KSHV 040155
MTRBKB
METAR KBKB 040154Z AUTO 00000KT 10SM CLR 17/13 A2996 RMK AO2 SLP173
T01670128 $





000
SAUS44 KSHV 040058
MTRAQV
METAR KAQV 040056Z AUTO 00000KT 10SM CLR 18/12 A2997 RMK AO2 SLP148
T01780122 $





000
SAUS44 KSHV 040055
MTRBKB
METAR KBKB 040054Z AUTO 00000KT 10SM CLR 18/12 A2995 RMK AO2 SLP170
T01830122 $





000
SAUS44 KSHV 040055
MTRBKB
METAR KBKB 040054Z AUTO 00000KT 10SM CLR 18/12 A2995 RMK AO2 SLP170
T01830122 $





000
SAUS44 KSHV 032359
MTRAQV
METAR KAQV 032356Z AUTO 35004KT 10SM FEW046 19/11 A2996 RMK AO2
SLP146 T01940111 10233 20194 53001 $





000
SAUS44 KSHV 032355
MTRBKB
METAR KBKB 032354Z AUTO VRB03KT 10SM CLR 21/12 A2994 RMK AO2 SLP166
T02110122 10244 20211 53003 $





000
SAUS44 KSHV 032355
MTRBKB
METAR KBKB 032354Z AUTO VRB03KT 10SM CLR 21/12 A2994 RMK AO2 SLP166
T02110122 10244 20211 53003 $





000
SAUS44 KSHV 032255
MTRBKB
METAR KBKB 032254Z AUTO 00000KT 10SM CLR 22/12 A2993 RMK AO2 SLP164
T02170122 $





000
SAUS44 KSHV 032201 COR
MTRAQV
METAR KAQV 032156Z AUTO 02007KT 10SM BKN044 23/11 A2996 RMK AO2
SLP142 T02280111 $





000
SAUS44 KSHV 032200 COR
MTRAQV
METAR KAQV 032156Z AUTO 02007KT 10SM BKN044 23/11 A2996 RMK AO2
SLP142 T02280111 $





000
SAUS44 KSHV 032159
MTRAQV
METAR KAQV 032156Z AUTO 02007KT 10SM BKN044 23/11 A2996 RMK AO2
SLP142 T02280111 $





000
SAUS44 KSHV 032155
MTRBKB
METAR KBKB 032154Z AUTO VRB06KT 10SM SCT045 23/13 A2993 RMK AO2
SLP164 T02330128 $





000
SAUS44 KSHV 032058
MTRAQV
METAR KAQV 032056Z AUTO VRB06KT 10SM SCT042 22/12 A2996 RMK AO2
SLP144 T02220122 56014 $





000
SAUS44 KSHV 032058
MTRAQV
METAR KAQV 032056Z AUTO VRB06KT 10SM SCT042 22/12 A2996 RMK AO2
SLP144 T02220122 56014 $





000
SAUS44 KSHV 032057
MTRBKB
METAR KBKB 032054Z AUTO VRB04KT 10SM BKN045 23/14 A2993 RMK AO2
SLP163 T02330139 56017 $





000
SAUS44 KSHV 032057
MTRBKB
METAR KBKB 032054Z AUTO VRB04KT 10SM BKN045 23/14 A2993 RMK AO2
SLP163 T02330139 56017 $





000
SAUS44 KSHV 031959
MTRAQV
METAR KAQV 031956Z AUTO 01008G14KT 10SM BKN040 21/12 A2998 RMK AO2
SLP149 T02110122 $





000
SAUS44 KSHV 031955
MTRBKB
METAR KBKB 031954Z AUTO VRB03KT 10SM BKN042 22/13 A2995 RMK AO2
SLP169 T02220133 $





000
SAUS44 KSHV 031955
MTRBKB
METAR KBKB 031954Z AUTO VRB03KT 10SM BKN042 22/13 A2995 RMK AO2
SLP169 T02220133 $





000
SAUS44 KSHV 031859
MTRAQV
METAR KAQV 031856Z AUTO 36005KT 10SM SCT036 BKN044 22/12 A2999 RMK
AO2 SLP152 T02170122 $





000
SAUS44 KSHV 031859
MTRAQV
METAR KAQV 031856Z AUTO 36005KT 10SM SCT036 BKN044 22/12 A2999 RMK
AO2 SLP152 T02170122 $





000
SAUS44 KSHV 031855
MTRBKB
METAR KBKB 031854Z AUTO VRB05KT 10SM SCT039 23/13 A2996 RMK AO2
SLP173 T02330133 $





000
SAUS44 KSHV 031758
MTRAQV
METAR KAQV 031756Z AUTO 36006KT 10SM BKN036 21/12 A3000 RMK AO2
SLP158 T02060122 10217 20133 58010 $





000
SAUS44 KSHV 031758
MTRAQV
METAR KAQV 031756Z AUTO 36006KT 10SM BKN036 21/12 A3000 RMK AO2
SLP158 T02060122 10217 20133 58010 $





000
SAUS44 KSHV 031757
MTRBKB
METAR KBKB 031754Z AUTO 02004KT 10SM BKN033 23/14 A2998 RMK AO2
SLP180 T02280139 10228 20150 58011 $





000
SAUS44 KSHV 031657
MTRAQV
METAR KAQV 031656Z AUTO VRB04KT 10SM SCT030 BKN038 21/13 A3002 RMK
AO2 SLP165 T02060128 $





000
SAUS44 KSHV 031657
MTRAQV
METAR KAQV 031656Z AUTO VRB04KT 10SM SCT030 BKN038 21/13 A3002 RMK
AO2 SLP165 T02060128 $





000
SAUS44 KSHV 031655
MTRBKB
METAR KBKB 031654Z AUTO 10SM SCT027 BKN032 22/14 A3000 RMK AO2
SLP185 T02170144 $





000
SAUS44 KSHV 031637
MTRAQV
SPECI KAQV 031636Z AUTO 01006KT 10SM BKN029 21/13 A3003 RMK AO2
T02060128 $





000
SAUS44 KSHV 031608
MTRAQV
SPECI KAQV 031605Z AUTO VRB05KT 10SM SCT022 SCT030 20/14 A3003 RMK
AO2 T02000139 $





000
SAUS44 KSHV 031608
MTRAQV
SPECI KAQV 031605Z AUTO VRB05KT 10SM SCT022 SCT030 20/14 A3003 RMK
AO2 T02000139 $





000
SAUS44 KSHV 031555
MTRBKB
METAR KBKB 031554Z AUTO VRB03KT 10SM FEW022 BKN029 20/14 A3001 RMK
AO2 SLP190 T02000139 $





000
SAUS44 KSHV 031555
MTRBKB
METAR KBKB 031554Z AUTO VRB03KT 10SM FEW022 BKN029 20/14 A3001 RMK
AO2 SLP190 T02000139 $





000
SAUS44 KSHV 031456
MTRBKB
METAR KBKB 031454Z AUTO VRB03KT 10SM FEW016 19/14 A3002 RMK AO2
SLP191 T01890139 51009 $





000
SAUS44 KSHV 031358
MTRAQV
METAR KAQV 031356Z AUTO 01006KT 10SM FEW010 16/13 A3003 RMK AO2
SLP169 T01560128 $





000
SAUS44 KSHV 031357
MTRBKB
METAR KBKB 031354Z AUTO 02005KT 10SM FEW011 FEW120 17/13 A3001 RMK
AO2 SLP191 T01720133 $





000
SAUS44 KSHV 031255
MTRBKB
METAR KBKB 031254Z AUTO 35005KT 10SM SCT008 OVC120 16/13 A3000 RMK
AO2 SLP185 T01560128 $





000
SAUS44 KSHV 031255
MTRBKB
METAR KBKB 031254Z AUTO 35005KT 10SM SCT008 OVC120 16/13 A3000 RMK
AO2 SLP185 T01560128 $





000
SAUS44 KSHV 031229
MTRBKB
SPECI KBKB 031228Z AUTO VRB04KT 10SM FEW008 OVC120 15/13 A2999 RMK
AO2 T01500128 $





000
SAUS44 KSHV 031158
MTRAQV
METAR KAQV 031156Z AUTO VRB03KT 10SM BKN120 13/12 A3000 RMK AO2
SLP159 70095 T01330122 10167 20133 53004 $





000
SAUS44 KSHV 031158
MTRAQV
METAR KAQV 031156Z AUTO VRB03KT 10SM BKN120 13/12 A3000 RMK AO2
SLP159 70095 T01330122 10167 20133 53004 $





000
SAUS44 KSHV 031157
MTRBKB
METAR KBKB 031154Z AUTO 00000KT 10SM BKN120 15/13 A2999 RMK AO2
SLP182 70052 T01500133 10178 20150 53007 $





000
SAUS44 KSHV 031157
MTRBKB
METAR KBKB 031154Z AUTO 00000KT 10SM BKN120 15/13 A2999 RMK AO2
SLP182 70052 T01500133 10178 20150 53007 $





000
SAUS44 KSHV 031057
MTRAQV
METAR KAQV 031056Z AUTO VRB05KT 10SM BKN120 14/12 A2999 RMK AO2
SLP156 T01390122 $





000
SAUS44 KSHV 031057
MTRAQV
METAR KAQV 031056Z AUTO VRB05KT 10SM BKN120 14/12 A2999 RMK AO2
SLP156 T01390122 $





000
SAUS44 KSHV 031012
MTRAQV
SPECI KAQV 031010Z AUTO VRB05KT 10SM SCT011 14/13 A2999 RMK AO2
T01440128 $





000
SAUS44 KSHV 031012
MTRAQV
SPECI KAQV 031010Z AUTO VRB05KT 10SM SCT011 14/13 A2999 RMK AO2
T01440128 $





000
SAUS44 KSHV 030958
MTRAQV
METAR KAQV 030956Z AUTO 10SM BKN011 BKN033 15/13 A2999 RMK AO2
SLP155 T01500133 $





000
SAUS44 KSHV 030957
MTRBKB
METAR KBKB 030954Z AUTO 00000KT 10SM OVC037 16/13 A2997 RMK AO2
SLP176 T01610133 $





000
SAUS44 KSHV 030858
MTRAQV
METAR KAQV 030856Z AUTO 35004KT 10SM OVC030 16/13 A2999 RMK AO2
SLP154 T01560133 56005 $





000
SAUS44 KSHV 030858
MTRAQV
METAR KAQV 030856Z AUTO 35004KT 10SM OVC030 16/13 A2999 RMK AO2
SLP154 T01560133 56005 $





000
SAUS44 KSHV 030855
MTRBKB
METAR KBKB 030854Z AUTO VRB03KT 10SM FEW009 FEW013 OVC040 17/15
A2997 RMK AO2 SLP174 T01720150 56010 $





000
SAUS44 KSHV 030804
MTRBKB
SPECI KBKB 030803Z AUTO 00000KT 10SM BKN030 OVC037 17/15 A2997 RMK
AO2 T01720150 $





000
SAUS44 KSHV 030757
MTRAQV
METAR KAQV 030756Z AUTO 00000KT 10SM SCT019 OVC030 16/15 A2999 RMK
AO2 SLP156 T01610150 $





000
SAUS44 KSHV 030756
MTRBKB
METAR KBKB 030754Z AUTO VRB04KT 10SM BKN028 OVC034 17/15 A2997 RMK
AO2 SLP175 T01720150 $





000
SAUS44 KSHV 030741
MTRAQV
SPECI KAQV 030738Z AUTO 00000KT 10SM FEW017 OVC030 16/15 A2999 RMK
AO2 T01610150 $





000
SAUS44 KSHV 030727
MTRAQV
SPECI KAQV 030726Z AUTO 00000KT 10SM BKN016 BKN023 OVC030 16/15
A3000 RMK AO2 T01610150 $





000
SAUS44 KSHV 030723
MTRBKB
SPECI KBKB 030721Z AUTO 02004KT 10SM OVC028 18/16 A2998 RMK AO2
T01780156 $





000
SAUS44 KSHV 030716
MTRAQV
SPECI KAQV 030714Z AUTO 00000KT 10SM BKN013 BKN030 16/15 A3000 RMK
AO2 T01610150 $





000
SAUS44 KSHV 030704
MTRAQV
SPECI KAQV 030703Z AUTO 00000KT 10SM SCT015 OVC030 16/15 A3000 RMK
AO2 T01610150 $





000
SAUS44 KSHV 030703
MTRBKB
SPECI KBKB 030702Z AUTO VRB03KT 10SM FEW008 OVC030 18/16 A2999 RMK
AO2 T01780161 $





000
SAUS44 KSHV 030655
MTRBKB
METAR KBKB 030654Z AUTO 00000KT 10SM OVC029 18/16 A2999 RMK AO2
SLP183 T01780161 $





000
SAUS44 KSHV 030612
MTRBKB
SPECI KBKB 030611Z AUTO 00000KT 10SM FEW007 OVC029 18/16 A2999 RMK
AO2 T01780161 $





000
SAUS44 KSHV 030557
MTRBKB
METAR KBKB 030554Z AUTO 00000KT 10SM FEW007 OVC032 18/16 A3000 RMK
AO2 SLP185 60000 T01780161 10189 20172 402220172 53000 $





000
SAUS44 KSHV 030557
MTRBKB
METAR KBKB 030554Z AUTO 00000KT 10SM FEW007 OVC032 18/16 A3000 RMK
AO2 SLP185 60000 T01780161 10189 20172 402220172 53000 $





000
SAUS44 KSHV 030551
MTRBKB
SPECI KBKB 030549Z AUTO 00000KT 10SM FEW007 OVC032 18/16 A3000 RMK
AO2 $





000
SAUS44 KSHV 030551
MTRBKB
SPECI KBKB 030549Z AUTO 00000KT 10SM FEW007 OVC032 18/16 A3000 RMK
AO2 $





000
SAUS44 KSHV 030455
MTRBKB
METAR KBKB 030454Z AUTO VRB03KT 10SM OVC033 18/16 A2999 RMK AO2
SLP183 T01780161 $





000
SAUS44 KSHV 030419
MTRAQV
SPECI KAQV 030418Z AUTO 00000KT 10SM BKN020 OVC035 17/16 A3001 RMK
AO2 T01720161 $





000
SAUS44 KSHV 030419
MTRAQV
SPECI KAQV 030418Z AUTO 00000KT 10SM BKN020 OVC035 17/16 A3001 RMK
AO2 T01720161 $





000
SAUS44 KSHV 030355
MTRBKB
METAR KBKB 030354Z AUTO VRB03KT 10SM OVC035 18/16 A3000 RMK AO2
SLP185 T01780161 $





000
SAUS44 KSHV 030341
MTRBKB
SPECI KBKB 030339Z AUTO 00000KT 10SM FEW019 SCT025 OVC036 18/16
A3000 RMK AO2 T01780161 $





000
SAUS44 KSHV 030341
MTRBKB
SPECI KBKB 030339Z AUTO 00000KT 10SM FEW019 SCT025 OVC036 18/16
A3000 RMK AO2 T01780161 $





000
SAUS44 KSHV 030313
MTRBKB
SPECI KBKB 030311Z AUTO 02004KT 10SM SCT007 OVC017 17/16 A3000 RMK
AO2 T01720156 $





000
SAUS44 KSHV 030258
MTRAQV
METAR KAQV 030256Z AUTO 36004KT 10SM OVC035 17/16 A3001 RMK AO2
SLP161 60001 T01720156 51016 $





000
SAUS44 KSHV 030257
MTRBKB
METAR KBKB 030254Z AUTO VRB04KT 9SM BKN007 OVC015 18/17 A3000 RMK
AO2 RAB17E34 CIG 005V011 SLP186 P0000 60000 T01780167 51017 $





000
SAUS44 KSHV 030224
MTRBKB
SPECI KBKB 030223Z AUTO VRB04KT 4SM -RA BR BKN007 OVC013 18/17 A2999
RMK AO2 RAB17 CIG 005V009 P0000 T01830167 $





000
SAUS44 KSHV 030224
MTRBKB
SPECI KBKB 030223Z AUTO VRB04KT 4SM -RA BR BKN007 OVC013 18/17 A2999
RMK AO2 RAB17 CIG 005V009 P0000 T01830167 $





000
SAUS44 KSHV 030211
MTRAQV
SPECI KAQV 030210Z AUTO 01005KT 10SM SCT025 OVC032 17/16 A3001 RMK
AO2 T01720156 $





000
SAUS44 KSHV 030210
MTRBKB
SPECI KBKB 030208Z AUTO VRB03KT 6SM BR FEW008 BKN014 OVC023 18/17
A2999 RMK AO2 T01830172 $





000
SAUS44 KSHV 030156
MTRBKB
METAR KBKB 030154Z AUTO 00000KT 6SM BR BKN014 OVC021 18/17 A2999 RMK
AO2 SLP181 T01830172 $





000
SAUS44 KSHV 030156
MTRBKB
METAR KBKB 030154Z AUTO 00000KT 6SM BR BKN014 OVC021 18/17 A2999 RMK
AO2 SLP181 T01830172 $





000
SAUS44 KSHV 030147
MTRBKB
SPECI KBKB 030146Z AUTO 36003KT 5SM BR OVC015 18/17 A2999 RMK AO2
T01830172 $





000
SAUS44 KSHV 030106
MTRAQV
SPECI KAQV 030104Z AUTO 35008KT 320V030 6SM -RA BR FEW007 OVC017
18/16 A2999 RMK AO2 RAB0059 P0001 T01780161 $





000
SAUS44 KSHV 030056
MTRBKB
METAR KBKB 030054Z AUTO 00000KT 10SM OVC014 19/17 A2997 RMK AO2
SLP174 T01890167 $





000
SAUS44 KSHV 030045
MTRBKB
SPECI KBKB 030043Z AUTO 00000KT 10SM OVC014 19/17 A2996 RMK AO2
T01890167 $





000
SAUS44 KSHV 030045
MTRBKB
SPECI KBKB 030043Z AUTO 00000KT 10SM OVC014 19/17 A2996 RMK AO2
T01890167 $





000
SAUS44 KSHV 030016
MTRBKB
SPECI KBKB 030015Z AUTO VRB04KT 10SM SCT006 BKN016 OVC021 19/17
A2996 RMK AO2 T01890167 $





000
SAUS44 KSHV 030016
MTRBKB
SPECI KBKB 030015Z AUTO VRB04KT 10SM SCT006 BKN016 OVC021 19/17
A2996 RMK AO2 T01890167 $





000
SAUS44 KSHV 022355
MTRBKB
METAR KBKB 022354Z AUTO VRB03KT 10SM OVC007 19/17 A2995 RMK AO2
SLP169 60006 T01890172 10222 20178 53002 $





000
SAUS44 KSHV 022355
MTRBKB
METAR KBKB 022354Z AUTO VRB03KT 10SM OVC007 19/17 A2995 RMK AO2
SLP169 60006 T01890172 10222 20178 53002 $





000
SAUS44 KSHV 022325
MTRBKB
SPECI KBKB 022322Z AUTO VRB03KT 10SM BKN009 OVC013 20/18 A2993 RMK
AO2 CIG 008V012 T02000178 $





000
SAUS44 KSHV 022325
MTRBKB
SPECI KBKB 022322Z AUTO VRB03KT 10SM BKN009 OVC013 20/18 A2993 RMK
AO2 CIG 008V012 T02000178 $





000
SAUS44 KSHV 022320
MTRAQV
SPECI KAQV 022319Z AUTO 36005KT 10SM BKN017 OVC030 19/17 A2996 RMK
AO2 T01890172 $





000
SAUS44 KSHV 022258
MTRAQV
METAR KAQV 022256Z AUTO 01005KT 10SM OVC030 18/17 A2994 RMK AO2
SLP138 T01830167 $





000
SAUS44 KSHV 022258
MTRAQV
METAR KAQV 022256Z AUTO 01005KT 10SM OVC030 18/17 A2994 RMK AO2
SLP138 T01830167 $





000
SAUS44 KSHV 022256 COR
MTRBKB
METAR KBKB 022254Z AUTO 00000KT 10SM OVC010 21/18 A2992 RMK AO2 CIG
009V013 SLP159 T02110178 $





000
SAUS44 KSHV 022244
MTRBKB
SPECI KBKB 022242Z AUTO 00000KT 10SM OVC010 22/18 A2992 RMK AO2
T02170183 $





000
SAUS44 KSHV 022240
MTRAQV
SPECI KAQV 022239Z AUTO VRB03KT 10SM SCT006 OVC030 18/17 A2995 RMK
AO2 T01780167 $





000
SAUS44 KSHV 022155
MTRBKB
METAR KBKB 022154Z AUTO VRB03KT 10SM BKN009 21/18 A2993 RMK AO2
SLP163 T02110178 $





000
SAUS44 KSHV 022055
MTRBKB
METAR KBKB 022054Z AUTO 00000KT 10SM BKN008 OVC110 21/18 A2994 RMK
AO2 SLP166 60006 T02060178 58020 $





000
SAUS44 KSHV 021955
MTRBKB
METAR KBKB 021954Z AUTO VRB03KT 10SM OVC006 19/17 A2997 RMK AO2
RAE46 SLP174 P0000 T01890167 $





000
SAUS44 KSHV 021858
MTRAQV
METAR KAQV 021856Z AUTO 02007KT 10SM OVC006 16/15 A3001 RMK AO2
RAE52 SLP161 P0001 T01560150 $





000
SAUS44 KSHV 021857
MTRBKB
METAR KBKB 021854Z AUTO VRB05KT 10SM -RA BKN008 OVC026 18/16 A2999
RMK AO2 CIG 006V011 SLP183 P0006 T01830161 $





000
SAUS44 KSHV 021839
MTRBKB
SPECI KBKB 021837Z AUTO VRB05KT 10SM -RA BKN008 OVC027 18/16 A2999
RMK AO2 CIG 004V013 P0006 T01780161 $





000
SAUS44 KSHV 021759
MTRAQV
METAR KAQV 021756Z AUTO 36009G15KT 10SM -RA BKN007 OVC045 15/14
A3003 RMK AO2 SLP166 P0036 60092 T01500144 10206 20150 51002 $





000
SAUS44 KSHV 021759
MTRAQV
METAR KAQV 021756Z AUTO 36009G15KT 10SM -RA BKN007 OVC045 15/14
A3003 RMK AO2 SLP166 P0036 60092 T01500144 10206 20150 51002 $





000
SAUS44 KSHV 021756
MTRBKB
METAR KBKB 021754Z AUTO 36007KT 310V040 5SM -RA BR BKN006 BKN015
OVC024 18/17 A3000 RMK AO2 SLP187 P0010 60046 T01830172 10206 20183
53013 $





000
SAUS44 KSHV 021756
MTRBKB
METAR KBKB 021754Z AUTO 36007KT 310V040 5SM -RA BR BKN006 BKN015
OVC024 18/17 A3000 RMK AO2 SLP187 P0010 60046 T01830172 10206 20183
53013 $





000
SAUS44 KSHV 021744
MTRAQV
SPECI KAQV 021743Z AUTO 02009G17KT 2SM RA BR BKN007 OVC042 15/15
A3003 RMK AO2 P0036 T01500150 $





000
SAUS44 KSHV 021727
MTRAQV
SPECI KAQV 021725Z AUTO 36007KT 3SM RA BR OVC006 16/15 A3004 RMK AO2
P0029 T01560150 $





000
SAUS44 KSHV 021720
MTRBKB
SPECI KBKB 021717Z AUTO 32004KT 7SM -RA FEW005 BKN009 OVC028 21/19
A3000 RMK AO2 P0003 T02060194 $





000
SAUS44 KSHV 021709
MTRAQV
SPECI KAQV 021708Z AUTO 36013G18KT 1SM +RA BR BKN006 OVC011 16/16
A3003 RMK AO2 P0018 T01610156 $





000
SAUS44 KSHV 021704
MTRBKB
SPECI KBKB 021702Z AUTO 00000KT 3SM RA BR SCT005 BKN012 OVC030 21/19
A2999 RMK AO2 P0003 T02060194 $





000
SAUS44 KSHV 021704
MTRBKB
SPECI KBKB 021702Z AUTO 00000KT 3SM RA BR SCT005 BKN012 OVC030 21/19
A2999 RMK AO2 P0003 T02060194 $





000
SAUS44 KSHV 021701
MTRAQV
SPECI KAQV 021659Z AUTO 30007G14KT 270V340 1SM +RA BR OVC004 17/16
A3005 RMK AO2 PRESRR P0007 T01670161 $





000
SAUS44 KSHV 021652
MTRAQV
METAR KAQV 021652Z AUTO 33007G18KT 280V020 2SM +RA BR OVC004 17/16
A3003 RMK AO2 PRESRR SLP168 P0010 T01670161 $





000
SAUS44 KSHV 021651
MTRBKB
SPECI KBKB 021650Z AUTO VRB03KT 2 1/2SM RA BR FEW005 BKN012 OVC028
21/19 A2999 RMK AO2 P0004 $





000
SAUS44 KSHV 021651
MTRBKB
SPECI KBKB 021650Z AUTO VRB03KT 2 1/2SM RA BR FEW005 BKN012 OVC028
21/19 A2999 RMK AO2 P0004 $





000
SAUS44 KSHV 021637
MTRBKB
SPECI KBKB 021636Z AUTO 00000KT 9SM -RA FEW005 BKN025 OVC090 21/19
A2999 RMK AO2 P0001 T02060194 $





000
SAUS44 KSHV 021637
MTRBKB
SPECI KBKB 021636Z AUTO 00000KT 9SM -RA FEW005 BKN025 OVC090 21/19
A2999 RMK AO2 P0001 T02060194 $





000
SAUS44 KSHV 021620
MTRAQV
SPECI KAQV 021619Z AUTO 35009G15KT 8SM -RA BKN005 BKN019 OVC050
18/18 A3001 RMK AO2 P0003 T01780178 $





000
SAUS44 KSHV 021620
MTRAQV
SPECI KAQV 021619Z AUTO 35009G15KT 8SM -RA BKN005 BKN019 OVC050
18/18 A3001 RMK AO2 P0003 T01780178 $





000
SAUS44 KSHV 021609
MTRAQV
SPECI KAQV 021608Z AUTO 01010G14KT 3SM -RA BR SCT005 BKN021 OVC050
18/18 A3000 RMK AO2 P0003 T01830178 $





000
SAUS44 KSHV 021557
MTRAQV
METAR KAQV 021556Z AUTO VRB03KT 3/4SM +RA BR SCT005 BKN011 OVC038
19/18 A3002 RMK AO2 RAB01 TSB1458E13 SLP164 P0019 T01890183 $





000
SAUS44 KSHV 021555
MTRBKB
METAR KBKB 021554Z AUTO 00000KT 7SM -RA FEW005 BKN045 OVC065 21/19
A2996 RMK AO2 TSE24 SLP172 P0013 T02060194 $





000
SAUS44 KSHV 021555
MTRBKB
METAR KBKB 021554Z AUTO 00000KT 7SM -RA FEW005 BKN045 OVC065 21/19
A2996 RMK AO2 TSE24 SLP172 P0013 T02060194 $





000
SAUS44 KSHV 021554
MTRAQV
SPECI KAQV 021551Z AUTO VRB04KT 3/4SM +RA BR BKN005 BKN015 OVC042
18/18 A3002 RMK AO2 RAB01 TSB1458E13 P0014 $





000
SAUS44 KSHV 021549
MTRAQV
SPECI KAQV 021547Z AUTO 27005KT 1 1/2SM -RA BR SCT005 BKN014 OVC042
19/18 A3001 RMK AO2 RAB01 TSB1458E13 PRESRR P0011 T01890183 $





000
SAUS44 KSHV 021549
MTRAQV
SPECI KAQV 021547Z AUTO 27005KT 1 1/2SM -RA BR SCT005 BKN014 OVC042
19/18 A3001 RMK AO2 RAB01 TSB1458E13 PRESRR P0011 T01890183 $





000
SAUS44 KSHV 021546
MTRAQV
SPECI KAQV 021543Z AUTO 28007KT 10SM -RA SCT005 BKN014 OVC042 19/19
A3001 RMK AO2 RAB01 TSB1458E13 PRESRR P0003 T01890189 $





000
SAUS44 KSHV 021538
MTRAQV
SPECI KAQV 021537Z AUTO 28005KT 9SM -RA FEW009 SCT016 OVC042 20/19
A3000 RMK AO2 RAB01 TSB1458E13 PRESRR P0003 T02000194 $





000
SAUS44 KSHV 021526
MTRBKB
SPECI KBKB 021525Z AUTO 00000KT 4SM RA BR FEW006 BKN048 OVC070 20/19
A2996 RMK AO2 TSE24 P0011 T02000189 $





000
SAUS44 KSHV 021523
MTRBKB
SPECI KBKB 021522Z AUTO 00000KT 3SM TSRA BR BKN046 BKN070 OVC090
20/19 A2995 RMK AO2 P0011 T02000189 $





000
SAUS44 KSHV 021523
MTRBKB
SPECI KBKB 021522Z AUTO 00000KT 3SM TSRA BR BKN046 BKN070 OVC090
20/19 A2995 RMK AO2 P0011 T02000189 $





000
SAUS44 KSHV 021520
MTRAQV
SPECI KAQV 021519Z AUTO 00000KT 5SM -RA BR OVC042 21/20 A2997 RMK
AO2 RAB01 TSB1458E13 P0001 T02060200 $





000
SAUS44 KSHV 021514
MTRBKB
SPECI KBKB 021511Z AUTO 00000KT 1SM +TSRA BR OVC046 20/19 A2996 RMK
AO2 P0008 T02000189 $





000
SAUS44 KSHV 021507
MTRBKB
SPECI KBKB 021504Z AUTO 00000KT 2SM TSRA BR OVC050 20/19 A2995 RMK
AO2 P0003 T02000189 $





000
SAUS44 KSHV 021500
MTRAQV
SPECI KAQV 021458Z AUTO 00000KT 7SM TS FEW003 SCT018 OVC042 20/20
A2997 RMK AO2 TSB58 T02000200 $





000
SAUS44 KSHV 021457
MTRAQV
METAR KAQV 021456Z AUTO 00000KT 7SM FEW003 BKN018 OVC042 20/20 A2996
RMK AO2 RAE37 TSE07 SLP145 P0025 60027 T02000200 53007 $





000
SAUS44 KSHV 021457
MTRAQV
METAR KAQV 021456Z AUTO 00000KT 7SM FEW003 BKN018 OVC042 20/20 A2996
RMK AO2 RAE37 TSE07 SLP145 P0025 60027 T02000200 53007 $





000
SAUS44 KSHV 021456
MTRBKB
METAR KBKB 021454Z AUTO VRB03KT 3SM TSRA BR FEW017 BKN050 OVC055
20/19 A2996 RMK AO2 TSB11 SLP174 P0006 60018 T02000189 53015 $





000
SAUS44 KSHV 021444
MTRAQV
SPECI KAQV 021443Z AUTO 00000KT 8SM FEW003 BKN019 OVC042 20/20 A2997
RMK AO2 RAE37 TSE07 P0025 T02000200 $





000
SAUS44 KSHV 021438
MTRAQV
SPECI KAQV 021435Z AUTO 00000KT 6SM -RA BR SCT003 BKN035 OVC046
21/20 A2996 RMK AO2 TSE07 P0024 T02060200 $





000
SAUS44 KSHV 021433
MTRBKB
SPECI KBKB 021431Z AUTO 00000KT 3SM TSRA BR FEW006 SCT017 OVC050
20/19 A2996 RMK AO2 TSB11 P0002 T02000189 $





000
SAUS44 KSHV 021426
MTRAQV
SPECI KAQV 021425Z AUTO 00000KT 3SM -RA BR SCT005 BKN026 OVC050
20/20 A2996 RMK AO2 TSE07 P0024 T02000200 $





000
SAUS44 KSHV 021420
MTRAQV
SPECI KAQV 021418Z AUTO 00000KT 1 1/4SM RA BR SCT007 BKN026 OVC055
20/20 A2995 RMK AO2 TSE07 P0024 T02000200 $





000
SAUS44 KSHV 021414
MTRAQV
SPECI KAQV 021411Z AUTO 00000KT 1SM +RA BR SCT006 BKN010 OVC042
20/20 A2996 RMK AO2 TSE07 P0022 T02000200 $





000
SAUS44 KSHV 021414
MTRAQV
SPECI KAQV 021411Z AUTO 00000KT 1SM +RA BR SCT006 BKN010 OVC042
20/20 A2996 RMK AO2 TSE07 P0022 T02000200 $





000
SAUS44 KSHV 021412
MTRBKB
SPECI KBKB 021410Z AUTO 00000KT 8SM -TSRA FEW031 SCT048 OVC065 21/19
A2993 RMK AO2 P0000 T02060194 $





000
SAUS44 KSHV 021412
MTRBKB
SPECI KBKB 021410Z AUTO 00000KT 8SM -TSRA FEW031 SCT048 OVC065 21/19
A2993 RMK AO2 P0000 T02060194 $





000
SAUS44 KSHV 021408
MTRAQV
SPECI KAQV 021407Z AUTO 00000KT 3/4SM +RA BR BKN006 BKN010 OVC018
20/20 A2995 RMK AO2 TSE07 P0018 T02000200 $





000
SAUS44 KSHV 021408
MTRAQV
SPECI KAQV 021407Z AUTO 00000KT 3/4SM +RA BR BKN006 BKN010 OVC018
20/20 A2995 RMK AO2 TSE07 P0018 T02000200 $





000
SAUS44 KSHV 021358
MTRAQV
SPECI KAQV 021358Z AUTO 35004KT 1 3/4SM +TSRA BR BKN006 OVC010 20/19
A2994 RMK AO2 P0006 T02000194 $





000
SAUS44 KSHV 021355
MTRBKB
METAR KBKB 021354Z AUTO 02003KT 5SM -RA BR FEW029 OVC060 20/19 A2991
RMK AO2 RAB31 TSE03B36E51 PRESFR SLP155 P0009 T02000189 $





000
SAUS44 KSHV 021355
MTRAQV
SPECI KAQV 021354Z AUTO 00000KT 9SM TS OVC006 20/19 A2995 RMK AO2
TSB52 CIG 003V009 $





000
SAUS44 KSHV 021352
MTRBKB
SPECI KBKB 021350Z AUTO 00000KT 1 3/4SM -TSRA BR SCT025 OVC060 20/19
A2992 RMK AO2 RAB31 TSE03B36 P0009 $





000
SAUS44 KSHV 021343
MTRBKB
SPECI KBKB 021342Z AUTO 00000KT 2 1/2SM +TSRA BR FEW025 OVC060 20/19
A2993 RMK AO2 RAB31 TSE03B36 P0007 T02000189 $





000
SAUS44 KSHV 021343
MTRBKB
SPECI KBKB 021342Z AUTO 00000KT 2 1/2SM +TSRA BR FEW025 OVC060 20/19
A2993 RMK AO2 RAB31 TSE03B36 P0007 T02000189 $





000
SAUS44 KSHV 021310
MTRBKB
SPECI KBKB 021309Z AUTO VRB03KT 10SM FEW065 SCT080 20/19 A2993 RMK
AO2 TSE03 T02000189 $





000
SAUS44 KSHV 021255
MTRBKB
METAR KBKB 021254Z AUTO 00000KT 10SM TS FEW039 SCT080 19/18 A2992
RMK AO2 RAE41 TSE1158B48 SLP158 P0003 T01940183 $





000
SAUS44 KSHV 021205
MTRBKB
SPECI KBKB 021204Z AUTO 27003KT 7SM -RA FEW036 BKN080 OVC110 19/18
A2990 RMK AO2 TSE1158 P0001 T01940183 $





000
SAUS44 KSHV 021205
MTRBKB
SPECI KBKB 021204Z AUTO 27003KT 7SM -RA FEW036 BKN080 OVC110 19/18
A2990 RMK AO2 TSE1158 P0001 T01940183 $





000
SAUS44 KSHV 021157
MTRAQV
METAR KAQV 021156Z AUTO 31004KT 5SM BR BKN002 BKN010 19/19 A2994 RMK
AO2 RAE25B28E43 TSE39 PRESRR SLP137 P0004 60020 70066 T01940194
10206 20194 53007 $





000
SAUS44 KSHV 021157
MTRAQV
METAR KAQV 021156Z AUTO 31004KT 5SM BR BKN002 BKN010 19/19 A2994 RMK
AO2 RAE25B28E43 TSE39 PRESRR SLP137 P0004 60020 70066 T01940194
10206 20194 53007 $





000
SAUS44 KSHV 021155
MTRBKB
METAR KBKB 021154Z AUTO VRB06KT 4SM TSRA BR FEW050 BKN090 OVC110
19/18 A2989 RMK AO2 PRESFR SLP147 P0018 60042 70111 T01940183 10211
20194 58015 $





000
SAUS44 KSHV 021151
MTRAQV
SPECI KAQV 021149Z AUTO VRB05KT 6SM BR BKN002 BKN008 BKN050 19/19
A2990 RMK AO2 RAE25B28E43 TSE39 P0004 T01940194 $





000
SAUS44 KSHV 021142
MTRAQV
SPECI KAQV 021139Z AUTO VRB03KT 8SM -RA SCT002 BKN008 BKN040 19/19
A2991 RMK AO2 RAE25B28 TSE39 P0004 T01940194 $





000
SAUS44 KSHV 021142
MTRAQV
SPECI KAQV 021139Z AUTO VRB03KT 8SM -RA SCT002 BKN008 BKN040 19/19
A2991 RMK AO2 RAE25B28 TSE39 P0004 T01940194 $





000
SAUS44 KSHV 021140
MTRBKB
SPECI KBKB 021139Z AUTO VRB04KT 3SM -TSRA BR SCT055 BKN075 OVC100
19/19 A2993 RMK AO2 P0014 T01940189 $





000
SAUS44 KSHV 021140
MTRBKB
SPECI KBKB 021139Z AUTO VRB04KT 3SM -TSRA BR SCT055 BKN075 OVC100
19/19 A2993 RMK AO2 P0014 T01940189 $





000
SAUS44 KSHV 021127
MTRBKB
SPECI KBKB 021126Z AUTO 00000KT 1 3/4SM +TSRA BR SCT048 BKN090
OVC110 20/19 A2993 RMK AO2 P0009 T02000194 $





000
SAUS44 KSHV 021126
MTRAQV
SPECI KAQV 021125Z AUTO 09005KT 6SM TS BR FEW002 SCT042 BKN070 20/19
A2990 RMK AO2 RAE25 P0004 T02000194 $





000
SAUS44 KSHV 021113
MTRBKB
SPECI KBKB 021112Z AUTO VRB03KT 4SM -TSRA BR SCT010 SCT034 OVC110
21/19 A2995 RMK AO2 PRESRR P0002 T02060194 $





000
SAUS44 KSHV 021113
MTRBKB
SPECI KBKB 021112Z AUTO VRB03KT 4SM -TSRA BR SCT010 SCT034 OVC110
21/19 A2995 RMK AO2 PRESRR P0002 T02060194 $





000
SAUS44 KSHV 021104
MTRBKB
SPECI KBKB 021103Z AUTO 00000KT 5SM -TSRA BR BKN010 BKN032 OVC110
20/19 A2991 RMK AO2 P0001 T02000194 $





000
SAUS44 KSHV 021055
MTRBKB
METAR KBKB 021054Z AUTO VRB03KT 4SM -TSRA BR OVC009 21/19 A2992 RMK
AO2 SLP156 P0009 T02060194 $





000
SAUS44 KSHV 021049
MTRAQV
SPECI KAQV 021046Z AUTO 00000KT 6SM -TSRA BR SCT013 OVC110 20/19
A2993 RMK AO2 RAB05 TSB0959E14B41 P0003 T02000194 $





000
SAUS44 KSHV 021046
MTRBKB
SPECI KBKB 021043Z AUTO 00000KT 2 1/2SM +TSRA BR FEW003 OVC009 21/19
A2992 RMK AO2 P0008 T02060194 $





000
SAUS44 KSHV 021046
MTRBKB
SPECI KBKB 021043Z AUTO 00000KT 2 1/2SM +TSRA BR FEW003 OVC009 21/19
A2992 RMK AO2 P0008 T02060194 $





000
SAUS44 KSHV 021027
MTRAQV
SPECI KAQV 021025Z AUTO 00000KT 6SM -RA BR BKN014 BKN120 20/19 A2994
RMK AO2 RAB05 TSB0959E14 P0001 T02000194 $





000
SAUS44 KSHV 021021
MTRBKB
SPECI KBKB 021019Z AUTO 27003KT 4SM TSRA BR BKN003 OVC095 20/19
A2993 RMK AO2 P0002 T02000194 $





000
SAUS44 KSHV 021019
MTRAQV
SPECI KAQV 021018Z AUTO 00000KT 5SM -RA BR SCT014 BKN024 BKN060
20/19 A2995 RMK AO2 RAB05 TSB0959E14 P0001 T02000194 $





000
SAUS44 KSHV 021011
MTRAQV
SPECI KAQV 021009Z AUTO 00000KT 7SM -TSRA SCT022 SCT060 BKN120 20/19
A2994 RMK AO2 RAB05 TSB0959 P0000 T02000194 $





000
SAUS44 KSHV 021011
MTRAQV
SPECI KAQV 021009Z AUTO 00000KT 7SM -TSRA SCT022 SCT060 BKN120 20/19
A2994 RMK AO2 RAB05 TSB0959 P0000 T02000194 $





000
SAUS44 KSHV 021006
MTRBKB
SPECI KBKB 021005Z AUTO 00000KT 5SM -TSRA BR FEW009 BKN080 OVC100
20/19 A2993 RMK AO2 P0001 T02000194 $





000
SAUS44 KSHV 021006
MTRBKB
SPECI KBKB 021005Z AUTO 00000KT 5SM -TSRA BR FEW009 BKN080 OVC100
20/19 A2993 RMK AO2 P0001 T02000194 $





000
SAUS44 KSHV 020958
MTRAQV
METAR KAQV 020956Z AUTO 00000KT 8SM TS BKN022 BKN050 BKN065 20/19
A2994 RMK AO2 RAE24 TSB40B54 SLP136 P0009 T02000194 $





000
SAUS44 KSHV 020955
MTRBKB
METAR KBKB 020954Z AUTO 33003KT 3SM TSRA BR FEW011 BKN095 OVC110
20/19 A2993 RMK AO2 TSB0859 SLP160 P0013 T02000194 $





000
SAUS44 KSHV 020955
MTRBKB
METAR KBKB 020954Z AUTO 33003KT 3SM TSRA BR FEW011 BKN095 OVC110
20/19 A2993 RMK AO2 TSB0859 SLP160 P0013 T02000194 $





000
SAUS44 KSHV 020947
MTRAQV
SPECI KAQV 020946Z AUTO 00000KT 9SM TS BKN022 BKN049 20/19 A2994 RMK
AO2 RAE24 TSB40 P0009 T02000194 $





000
SAUS44 KSHV 020926
MTRBKB
SPECI KBKB 020925Z AUTO 00000KT 4SM -TSRA BR FEW018 BKN070 OVC110
21/19 A2991 RMK AO2 TSB0859 P0008 T02060194 $





000
SAUS44 KSHV 020918
MTRAQV
SPECI KAQV 020917Z AUTO 00000KT 5SM -TSRA BR FEW022 BKN047 OVC100
19/19 A2993 RMK AO2 P0009 T01940194 $





000
SAUS44 KSHV 020911
MTRBKB
SPECI KBKB 020910Z AUTO 00000KT 2 1/2SM +TSRA BR SCT018 BKN049
OVC090 21/19 A2994 RMK AO2 TSB0859 P0005 T02060194 $





000
SAUS44 KSHV 020909
MTRAQV
SPECI KAQV 020907Z AUTO 00000KT 2SM -TSRA BR SCT042 BKN050 OVC095
20/19 A2994 RMK AO2 P0008 T02000194 $





000
SAUS44 KSHV 020858
MTRAQV
METAR KAQV 020856Z AUTO 00000KT 9SM -TSRA BKN050 OVC090 20/19 A2992
RMK AO2 RAB50 TSB30B33 SLP130 P0002 60002 T02000189 55007 $





000
SAUS44 KSHV 020857
MTRBKB
METAR KBKB 020854Z AUTO 00000KT 5SM TSRA BR BKN018 OVC031 21/19
A2993 RMK AO2 RAB24 TSB42 SLP162 P0002 60002 T02060194 55002 $





000
SAUS44 KSHV 020838
MTRAQV
SPECI KAQV 020836Z AUTO 00000KT 10SM TS BKN050 BKN090 20/19 A2995
RMK AO2 TSB30B33 PRESRR T02000189 $





000
SAUS44 KSHV 020823
MTRBKB
SPECI KBKB 020821Z AUTO 00000KT 10SM BKN022 BKN050 21/19 A2992 RMK
AO2 T02060189 $





000
SAUS44 KSHV 020757
MTRAQV
METAR KAQV 020756Z AUTO 00000KT 10SM CLR 20/19 A2992 RMK AO2 TSE03
SLP130 T02000189 $





000
SAUS44 KSHV 020756
MTRBKB
METAR KBKB 020754Z AUTO 00000KT 10SM SCT011 21/19 A2992 RMK AO2
SLP158 T02060189 $





000
SAUS44 KSHV 020710
MTRAQV
SPECI KAQV 020709Z AUTO 18003KT 10SM SCT017 BKN100 20/19 A2994 RMK
AO2 TSE03 T02000189 $





000
SAUS44 KSHV 020710
MTRAQV
SPECI KAQV 020709Z AUTO 18003KT 10SM SCT017 BKN100 20/19 A2994 RMK
AO2 TSE03 T02000189 $





000
SAUS44 KSHV 020658
MTRAQV
METAR KAQV 020656Z AUTO VRB03KT 10SM TS SCT016 BKN095 20/19 A2994
RMK AO2 TSE33B48 SLP137 T02000189 $





000
SAUS44 KSHV 020658
MTRAQV
METAR KAQV 020656Z AUTO VRB03KT 10SM TS SCT016 BKN095 20/19 A2994
RMK AO2 TSE33B48 SLP137 T02000189 $





000
SAUS44 KSHV 020657
MTRBKB
METAR KBKB 020654Z AUTO 00000KT 10SM OVC013 21/19 A2993 RMK AO2
SLP161 T02060189 $





000
SAUS44 KSHV 020657
MTRBKB
METAR KBKB 020654Z AUTO 00000KT 10SM OVC013 21/19 A2993 RMK AO2
SLP161 T02060189 $





000
SAUS44 KSHV 020655
MTRAQV
SPECI KAQV 020654Z AUTO 17005KT 10SM TS SCT016 BKN095 20/19 A2994
RMK AO2 TSE33B48 $





000
SAUS44 KSHV 020655
MTRAQV
SPECI KAQV 020654Z AUTO 17005KT 10SM TS SCT016 BKN095 20/19 A2994
RMK AO2 TSE33B48 $





000
SAUS44 KSHV 020645
MTRAQV
SPECI KAQV 020644Z AUTO 18004KT 10SM SCT016 20/19 A2994 RMK AO2
TSE33 T02000189 $





000
SAUS44 KSHV 020639
MTRAQV
SPECI KAQV 020636Z AUTO 17006KT 10SM VCTS SCT016 BKN110 20/19 A2995
RMK AO2 TSE33 T02000189 $





000
SAUS44 KSHV 020633
MTRAQV
SPECI KAQV 020632Z AUTO 18005KT 10SM TS BKN016 BKN110 20/19 A2995
RMK AO2 T02000189 $





000
SAUS44 KSHV 020633
MTRAQV
SPECI KAQV 020632Z AUTO 18005KT 10SM TS BKN016 BKN110 20/19 A2995
RMK AO2 T02000189 $





000
SAUS44 KSHV 020557
MTRAQV
METAR KAQV 020556Z AUTO 18004KT 10SM TS OVC100 21/19 A2995 RMK AO2
TSB50B55 SLP137 T02060189 10239 20200 402940189 56002 $





000
SAUS44 KSHV 020557
MTRAQV
METAR KAQV 020556Z AUTO 18004KT 10SM TS OVC100 21/19 A2995 RMK AO2
TSB50B55 SLP137 T02060189 10239 20200 402940189 56002 $





000
SAUS44 KSHV 020556
MTRBKB
METAR KBKB 020554Z AUTO 00000KT 10SM OVC011 21/19 A2994 RMK AO2
SLP164 T02060189 10233 20206 402830200 53005 $





000
SAUS44 KSHV 020556
MTRBKB
METAR KBKB 020554Z AUTO 00000KT 10SM OVC011 21/19 A2994 RMK AO2
SLP164 T02060189 10233 20206 402830200 53005 $





000
SAUS44 KSHV 020529
MTRBKB
SPECI KBKB 020528Z AUTO 00000KT 10SM BKN012 BKN110 21/19 A2995 RMK
AO2 T02060189 $





000
SAUS44 KSHV 020458
MTRAQV
METAR KAQV 020456Z AUTO 00000KT 10SM FEW016 BKN110 21/19 A2995 RMK
AO2 TSE19 SLP138 T02060189 $





000
SAUS44 KSHV 020455
MTRBKB
METAR KBKB 020454Z AUTO 00000KT 10SM BKN110 21/19 A2992 RMK AO2
SLP159 T02060189 $





000
SAUS44 KSHV 020455
MTRBKB
METAR KBKB 020454Z AUTO 00000KT 10SM BKN110 21/19 A2992 RMK AO2
SLP159 T02060189 $





000
SAUS44 KSHV 020450
MTRAQV
SPECI KAQV 020449Z AUTO 00000KT 10SM SCT016 BKN120 21/19 A2995 RMK
AO2 TSE19 T02060189 $





000
SAUS44 KSHV 020426
MTRAQV
SPECI KAQV 020424Z AUTO 00000KT 10SM BKN014 21/19 A2994 RMK AO2
TSE19 T02060189 $





000
SAUS44 KSHV 020420
MTRAQV
SPECI KAQV 020418Z AUTO 00000KT 10SM TS BKN015 21/19 A2994 RMK AO2
T02060189 $





000
SAUS44 KSHV 020420
MTRAQV
SPECI KAQV 020418Z AUTO 00000KT 10SM TS BKN015 21/19 A2994 RMK AO2
T02060189 $





000
SAUS44 KSHV 020359
MTRAQV
METAR KAQV 020356Z AUTO 00000KT 10SM TS FEW014 21/19 A2994 RMK AO2
TSB43 SLP137 T02110189 $





000
SAUS44 KSHV 020356
MTRBKB
METAR KBKB 020354Z AUTO 00000KT 10SM CLR 21/19 A2993 RMK AO2 SLPNO
T02060189 $





000
SAUS44 KSHV 020344
MTRBKB
SPECI KBKB 020343Z AUTO 00000KT 10SM VCTS CLR 21/19 A2994 RMK AO2
T02060189 $





000
SAUS44 KSHV 020341
MTRAQV
SPECI KAQV 020340Z AUTO 00000KT 10SM TS CLR 21/19 A2995 RMK AO2
T02060189 $





000
SAUS44 KSHV 020258
MTRAQV
METAR KAQV 020256Z AUTO 27005KT 10SM CLR 21/18 A2995 RMK AO2 SLP140
T02110183 53033 $





000
SAUS44 KSHV 020257
MTRBKB
METAR KBKB 020254Z AUTO 00000KT 10SM CLR 21/18 A2992 RMK AO2 SLP159
T02110183 53026 $





000
SAUS44 KSHV 020157
MTRAQV
METAR KAQV 020156Z AUTO 17003KT 10SM CLR 22/19 A2990 RMK AO2 SLP122
T02170189 $





000
SAUS44 KSHV 020155
MTRBKB
METAR KBKB 020154Z AUTO 00000KT 10SM CLR 22/19 A2989 RMK AO2 SLP149
T02170189 $





000
SAUS44 KSHV 020155
MTRBKB
METAR KBKB 020154Z AUTO 00000KT 10SM CLR 22/19 A2989 RMK AO2 SLP149
T02170189 $





000
SAUS44 KSHV 020057
MTRAQV
METAR KAQV 020056Z AUTO 17005KT 10SM CLR 22/19 A2988 RMK AO2 SLP114
T02220194 $





000
SAUS44 KSHV 020057
MTRAQV
METAR KAQV 020056Z AUTO 17005KT 10SM CLR 22/19 A2988 RMK AO2 SLP114
T02220194 $





000
SAUS44 KSHV 020055
MTRBKB
METAR KBKB 020054Z AUTO 00000KT 10SM CLR 22/19 A2987 RMK AO2 SLP141
T02220189 $





000
SAUS44 KSHV 020055
MTRBKB
METAR KBKB 020054Z AUTO 00000KT 10SM CLR 22/19 A2987 RMK AO2 SLP141
T02220189 $





000
SAUS44 KSHV 012357
MTRAQV
METAR KAQV 012356Z AUTO 17004KT 10SM CLR 24/19 A2986 RMK AO2 SLP107
T02390194 10294 20228 53001 $





000
SAUS44 KSHV 012357
MTRAQV
METAR KAQV 012356Z AUTO 17004KT 10SM CLR 24/19 A2986 RMK AO2 SLP107
T02390194 10294 20228 53001 $





000
SAUS44 KSHV 012355
MTRBKB
METAR KBKB 012354Z AUTO 00000KT 10SM CLR 23/19 A2984 RMK AO2 SLP132
T02330194 10283 20233 58002 $





000
SAUS44 KSHV 012355
MTRBKB
METAR KBKB 012354Z AUTO 00000KT 10SM CLR 23/19 A2984 RMK AO2 SLP132
T02330194 10283 20233 58002 $





000
SAUS44 KSHV 012258
MTRAQV
METAR KAQV 012256Z AUTO 17005KT 10SM FEW070 27/19 A2986 RMK AO2
SLP107 T02670194 $





000
SAUS44 KSHV 012257
MTRBKB
METAR KBKB 012254Z AUTO VRB05KT 10SM FEW027 SCT035 SCT110 24/19
A2986 RMK AO2 SLP136 T02440194 $





000
SAUS44 KSHV 012157
MTRAQV
METAR KAQV 012156Z AUTO VRB06KT 10SM CLR 28/21 A2984 RMK AO2 SLP101
T02830206 $





000
SAUS44 KSHV 012155
MTRBKB
METAR KBKB 012154Z AUTO VRB06KT 10SM FEW028 SCT075 BKN110 27/20
A2985 RMK AO2 SLP134 T02670200 $





000
SAUS44 KSHV 012057
MTRAQV
METAR KAQV 012056Z AUTO VRB06KT 10SM FEW035 29/20 A2985 RMK AO2
SLP105 T02890200 55005 $





000
SAUS44 KSHV 011957
MTRAQV
METAR KAQV 011956Z AUTO VRB04KT 10SM FEW037 29/19 A2985 RMK AO2
SLP104 T02890189 $





000
SAUS44 KSHV 011955
MTRBKB
METAR KBKB 011954Z AUTO VRB04KT 10SM CLR 27/20 A2984 RMK AO2 SLP130
T02720200 $





000
SAUS44 KSHV 011940
MTRBKB
SPECI KBKB 011939Z AUTO VRB03KT 10SM FEW028 28/19 A2985 RMK AO2
T02780194 $





000
SAUS44 KSHV 011857
MTRAQV
METAR KAQV 011856Z AUTO VRB04KT 10SM FEW036 28/19 A2986 RMK AO2
SLP108 T02830194 $





000
SAUS44 KSHV 011855
MTRBKB
METAR KBKB 011854Z AUTO 10SM BKN028 27/20 A2986 RMK AO2 SLP135
T02720200 $





000
SAUS44 KSHV 011855
MTRBKB
METAR KBKB 011854Z AUTO 10SM BKN028 27/20 A2986 RMK AO2 SLP135
T02720200 $





000
SAUS44 KSHV 011758
MTRAQV
METAR KAQV 011756Z AUTO 01004KT 10SM CLR 29/18 A2987 RMK AO2 SLP110
60046 T02890183 10289 20189 58003 $





000
SAUS44 KSHV 011757
MTRBKB
METAR KBKB 011754Z AUTO 00000KT 10SM CLR 28/20 A2985 RMK AO2 SLP134
60069 T02780200 10283 20200 $





000
SAUS44 KSHV 011757
MTRBKB
METAR KBKB 011754Z AUTO 00000KT 10SM CLR 28/20 A2985 RMK AO2 SLP134
60069 T02780200 10283 20200 $





000
SAUS44 KSHV 011658
MTRAQV
METAR KAQV 011656Z AUTO VRB03KT 10SM CLR 27/19 A2987 RMK AO2 SLP112
T02670189 $





000
SAUS44 KSHV 011655
MTRBKB
METAR KBKB 011654Z AUTO 00000KT 10SM CLR 27/19 A2986 RMK AO2 SLP136
T02720189 $





000
SAUS44 KSHV 011458
MTRAQV
METAR KAQV 011456Z AUTO VRB04KT 10SM FEW014 24/20 A2987 RMK AO2
SLP114 60046 T02390200 51013 $





000
SAUS44 KSHV 011457
MTRBKB
METAR KBKB 011454Z AUTO VRB03KT 10SM CLR 23/20 A2988 RMK AO2 SLP143
60011 T02330200 51005





000
SAUS44 KSHV 011358
MTRAQV
METAR KAQV 011356Z AUTO 00000KT 10SM FEW050 23/21 A2987 RMK AO2
TSE03 SLP112 T02280206 $





000
SAUS44 KSHV 011357
MTRBKB
METAR KBKB 011354Z AUTO VRB03KT 10SM FEW007 FEW110 22/20 A2987 RMK
AO2 TSE02 SLP142 T02170200





000
SAUS44 KSHV 011351
MTRBKB
SPECI KBKB 011349Z AUTO 11003KT 10SM FEW006 SCT110 22/20 A2987 RMK
AO2 TSE02





000
SAUS44 KSHV 011310
MTRBKB
SPECI KBKB 011308Z AUTO VRB03KT 10SM FEW090 21/20 A2986 RMK AO2
TSE02 T02110200





000
SAUS44 KSHV 011305
MTRAQV
SPECI KAQV 011303Z AUTO 05003KT 10SM FEW005 SCT009 OVC050 20/19
A2988 RMK AO2 TSE03 T02000194 $





000
SAUS44 KSHV 011305
MTRAQV
SPECI KAQV 011303Z AUTO 05003KT 10SM FEW005 SCT009 OVC050 20/19
A2988 RMK AO2 TSE03 T02000194 $





000
SAUS44 KSHV 011256
MTRBKB
METAR KBKB 011254Z AUTO 27003KT 10SM TS SCT090 21/19 A2986 RMK AO2
RAE25 TSE30B46 SLP138 P0011 T02060194





000
SAUS44 KSHV 011256
MTRBKB
METAR KBKB 011254Z AUTO 27003KT 10SM TS SCT090 21/19 A2986 RMK AO2
RAE25 TSE30B46 SLP138 P0011 T02060194





000
SAUS44 KSHV 011252
MTRAQV
SPECI KAQV 011249Z AUTO 00000KT 9SM TS SCT006 BKN009 BKN019 19/19
A2987 RMK AO2 RAE31 P0046 T01940189 $





000
SAUS44 KSHV 011252
MTRAQV
SPECI KAQV 011249Z AUTO 00000KT 9SM TS SCT006 BKN009 BKN019 19/19
A2987 RMK AO2 RAE31 P0046 T01940189 $





000
SAUS44 KSHV 011239
MTRAQV
SPECI KAQV 011236Z AUTO 00000KT 10SM TS FEW008 BKN014 19/19 A2987
RMK AO2 RAE31 PRESRR P0046 T01940189 $





000
SAUS44 KSHV 011237
MTRBKB
SPECI KBKB 011236Z AUTO 00000KT 10SM FEW041 BKN085 BKN110 20/19
A2984 RMK AO2 RAE25 TSE30 P0011 T02000189





000
SAUS44 KSHV 011229
MTRAQV
SPECI KAQV 011228Z AUTO 17006KT 3SM -TSRA BR SCT006 BKN016 19/19
A2986 RMK AO2 P0046 T01890189 $





000
SAUS44 KSHV 011229
MTRAQV
SPECI KAQV 011228Z AUTO 17006KT 3SM -TSRA BR SCT006 BKN016 19/19
A2986 RMK AO2 P0046 T01890189 $





000
SAUS44 KSHV 011227
MTRAQV
SPECI KAQV 011226Z AUTO 17006KT 1 1/4SM -TSRA BR SCT006 SCT011
BKN016 19/19 A2986 RMK AO2 P0046 T01890189 $





000
SAUS44 KSHV 011227
MTRAQV
SPECI KAQV 011226Z AUTO 17006KT 1 1/4SM -TSRA BR SCT006 SCT011
BKN016 19/19 A2986 RMK AO2 P0046 T01890189 $





000
SAUS44 KSHV 011225
MTRAQV
SPECI KAQV 011224Z AUTO VRB05KT 3/4SM -TSRA BR SCT006 SCT011 BKN014
19/18 A2985 RMK AO2 P0046 T01890183 $





000
SAUS44 KSHV 011220
MTRBKB
SPECI KBKB 011217Z AUTO VRB03KT 3SM -TSRA BR FEW006 BKN035 OVC110
20/19 A2983 RMK AO2 P0011 T02000189





000
SAUS44 KSHV 011220
MTRBKB
SPECI KBKB 011217Z AUTO VRB03KT 3SM -TSRA BR FEW006 BKN035 OVC110
20/19 A2983 RMK AO2 P0011 T02000189





000
SAUS44 KSHV 011216
MTRAQV
SPECI KAQV 011215Z AUTO 30007KT 270V330 3/4SM +TSRA BR BKN006 OVC010
21/20 A2985 RMK AO2 P0039 T02060200 $





000
SAUS44 KSHV 011216
MTRAQV
SPECI KAQV 011215Z AUTO 30007KT 270V330 3/4SM +TSRA BR BKN006 OVC010
21/20 A2985 RMK AO2 P0039 T02060200 $





000
SAUS44 KSHV 011206
MTRBKB
SPECI KBKB 011205Z AUTO VRB03KT 3SM -TSRA BR FEW007 BKN025 OVC075
20/19 A2983 RMK AO2 P0005 T02000189





000
SAUS44 KSHV 011205
MTRAQV
SPECI KAQV 011203Z AUTO 25004KT 2SM -TSRA BR BKN006 OVC010 22/21
A2985 RMK AO2 PRESRR P0002 T02170211 $





000
SAUS44 KSHV 011159
MTRAQV
METAR KAQV 011156Z AUTO VRB03KT 3SM TSRA BR BKN006 OVC010 22/21
A2984 RMK AO2 RAE1057B49 TSB43 SLP101 P0005 60005 70190 T02170211
10233 20217 53014 $





000
SAUS44 KSHV 011159
MTRAQV
METAR KAQV 011156Z AUTO VRB03KT 3SM TSRA BR BKN006 OVC010 22/21
A2984 RMK AO2 RAE1057B49 TSB43 SLP101 P0005 60005 70190 T02170211
10233 20217 53014 $





000
SAUS44 KSHV 011155
MTRBKB
METAR KBKB 011154Z AUTO VRB05KT 3/4SM +TSRA BR FEW005 BKN013 OVC018
21/19 A2982 RMK AO2 RAB25 TSB17 SLP125 P0058 60058 70074 T02060194
10239 20206 53011





000
SAUS44 KSHV 011148
MTRBKB
SPECI KBKB 011146Z AUTO VRB04KT 3/4SM +TSRA BR SCT005 BKN011 OVC018
21/19 A2984 RMK AO2 RAB25 TSB17 P0038 T02060194





000
SAUS44 KSHV 011147
MTRAQV
SPECI KAQV 011146Z AUTO VRB04KT 6SM TS BR OVC004 22/22 A2982 RMK AO2
RAE1057 TSB43 CIG 002V007 P0000 T02220217 $





000
SAUS44 KSHV 011142
MTRBKB
SPECI KBKB 011141Z AUTO VRB06G17KT 1 1/2SM +TSRA BR SCT005 BKN009
OVC018 22/21 A2985 RMK AO2 RAB25 TSB17 PRESRR P0019 T02170206





000
SAUS44 KSHV 011142
MTRBKB
SPECI KBKB 011141Z AUTO VRB06G17KT 1 1/2SM +TSRA BR SCT005 BKN009
OVC018 22/21 A2985 RMK AO2 RAB25 TSB17 PRESRR P0019 T02170206





000
SAUS44 KSHV 011141
MTRBKB
SPECI KBKB 011139Z AUTO 15007G17KT 110V210 2SM +TSRA BR SCT005
BKN011 OVC024 22/21 A2984 RMK AO2 RAB25 TSB17 PRESRR P0013 T02220206





000
SAUS44 KSHV 011141
MTRBKB
SPECI KBKB 011139Z AUTO 15007G17KT 110V210 2SM +TSRA BR SCT005
BKN011 OVC024 22/21 A2984 RMK AO2 RAB25 TSB17 PRESRR P0013 T02220206





000
SAUS44 KSHV 011135
MTRAQV
SPECI KAQV 011134Z AUTO 36006KT 3SM BR OVC002 22/22 A2982 RMK AO2
RAE1057 CIG 002V005 P0000 T02220217 $





000
SAUS44 KSHV 011120
MTRBKB
SPECI KBKB 011118Z AUTO 00000KT 6SM TS BR OVC005 24/22 A2981 RMK AO2
TSB17 T02390222





000
SAUS44 KSHV 011057
MTRAQV
METAR KAQV 011056Z AUTO 03003KT 1 1/4SM -RA BR OVC002 23/22 A2981
RMK AO2 RAB44 SLP090 P0000 T02280222 $





000
SAUS44 KSHV 011055
MTRBKB
METAR KBKB 011054Z AUTO 00000KT 6SM BR OVC004 24/22 A2980 RMK AO2
SLP117 T02390222





000
SAUS44 KSHV 011050
MTRAQV
SPECI KAQV 011048Z AUTO 00000KT 2SM -RA BR OVC002 23/22 A2981 RMK
AO2 RAB44 P0000 T02280222 $





000
SAUS44 KSHV 011024
MTRAQV
SPECI KAQV 011022Z AUTO 00000KT 3SM BR OVC003 23/22 A2981 RMK AO2
T02280222 $





000
SAUS44 KSHV 011006
MTRAQV
SPECI KAQV 011005Z AUTO 00000KT 2 1/2SM BR BKN003 OVC008 23/22 A2980
RMK AO2 T02280217 $





000
SAUS44 KSHV 010955
MTRBKB
METAR KBKB 010954Z AUTO 00000KT 6SM BR OVC005 24/22 A2977 RMK AO2
CIG 005V008 SLP106 T02390222





000
SAUS44 KSHV 010955
MTRBKB
METAR KBKB 010954Z AUTO 00000KT 6SM BR OVC005 24/22 A2977 RMK AO2
CIG 005V008 SLP106 T02390222





    US Dept of Commerce
    National Oceanic and Atmospheric Administration
    National Weather Service
    1325 East West Highway
    Silver Spring, MD 20910
    Page Author: NWS Internet Services Team
Disclaimer
Information Quality
Credits
Glossary
Privacy Policy
Freedom of Information Act (FOIA)
About Us
Career Opportunities